Time;durP1;ratioP1;P1;durP2;ratioP2;P2;SDS_P1;SDS_P2;PMS_P1;PMS_P2;Temp;Humidity;BMP_temperature;BMP_pressure;BME280_temperature;BME280_humidity;BME280_pressure;Samples;Min_cycle;Max_cycle;Signal;HPM_P1;HPM_P2
2022/10/07 00:05:34;;;;;;;6.62;5.57;;;18.70;81.10;;;;;;10826692;33;20051;-75
2022/10/07 00:11:37;;;;;;;7.40;5.57;;;18.70;81.00;;;;;;10830659;32;20370;-75
2022/10/07 00:17:38;;;;;;;10.13;6.70;;;18.60;81.10;;;;;;10829915;32;20032;-75
2022/10/07 00:23:43;;;;;;;8.02;4.93;;;18.70;81.10;;;;;;10817076;32;20024;-75
2022/10/07 00:29:46;;;;;;;9.60;6.87;;;18.60;81.10;;;;;;10812942;33;20028;-75
2022/10/07 00:35:49;;;;;;;9.30;5.85;;;18.60;81.10;;;;;;10816650;32;20016;-75
2022/10/07 00:41:52;;;;;;;6.97;5.18;;;18.50;81.20;;;;;;10829901;33;20032;-75
2022/10/07 00:47:54;;;;;;;14.15;7.68;;;18.50;81.20;;;;;;10816639;33;20050;-75
2022/10/07 00:53:56;;;;;;;8.10;5.93;;;18.40;81.20;;;;;;10829514;33;20060;-75
2022/10/07 00:59:59;;;;;;;7.32;6.00;;;18.30;81.20;;;;;;10829470;33;20051;-74
2022/10/07 01:06:02;;;;;;;12.15;6.28;;;18.20;81.40;;;;;;10825454;33;20384;-74
2022/10/07 01:12:27;;;;;;;7.30;6.00;;;18.20;81.50;;;;;;10829185;32;20063;-74
2022/10/07 01:18:30;;;;;;;9.85;6.82;;;18.20;81.50;;;;;;10816143;33;20028;-74
2022/10/07 01:24:40;;;;;;;6.68;4.78;;;18.00;81.60;;;;;;10829098;32;20020;-74
2022/10/07 01:30:49;;;;;;;9.43;4.82;;;18.00;81.70;;;;;;10822883;32;20392;-74
2022/10/07 01:36:55;;;;;;;6.32;5.22;;;17.90;81.70;;;;;;10835836;32;20055;-75
2022/10/07 01:42:58;;;;;;;8.35;5.00;;;17.80;81.60;;;;;;10822381;32;20035;-75
2022/10/07 01:49:00;;;;;;;7.62;5.32;;;17.80;81.80;;;;;;10818326;33;20426;-75
2022/10/07 01:55:18;;;;;;;7.43;5.30;;;17.80;81.80;;;;;;10821999;32;20040;-74
2022/10/07 02:01:30;;;;;;;6.05;4.22;;;17.80;81.80;;;;;;10836196;32;20291;-74
2022/10/07 02:07:42;;;;;;;7.10;4.95;;;17.70;81.80;;;;;;10834871;32;20019;-74
2022/10/07 02:14:15;;;;;;;9.00;4.90;;;17.70;81.90;;;;;;10834358;32;20031;-74
2022/10/07 02:20:18;;;;;;;5.87;4.10;;;17.60;82.00;;;;;;10834382;32;20436;-74
2022/10/07 02:26:21;;;;;;;5.12;3.97;;;17.60;82.00;;;;;;10834082;32;20051;-74
2022/10/07 02:32:27;;;;;;;4.43;3.65;;;17.50;82.00;;;;;;10833944;32;20434;-74
2022/10/07 02:38:30;;;;;;;9.95;4.32;;;17.50;82.00;;;;;;10833206;32;20023;-74
2022/10/07 02:44:45;;;;;;;9.05;4.28;;;17.50;82.00;;;;;;10831213;32;20032;-75
2022/10/07 02:50:54;;;;;;;5.40;3.87;;;17.50;81.90;;;;;;10833144;32;20027;-75
2022/10/07 02:56:59;;;;;;;8.60;5.28;;;17.50;82.10;;;;;;10819889;32;20056;-75
2022/10/07 03:03:03;;;;;;;5.95;3.37;;;17.40;82.00;;;;;;10832067;32;20032;-76
2022/10/07 03:09:08;;;;;;;6.15;4.47;;;17.40;82.10;;;;;;10832683;32;20056;-75
2022/10/07 03:15:11;;;;;;;5.40;3.67;;;17.30;82.20;;;;;;10828112;33;20032;-75
2022/10/07 03:21:14;;;;;;;4.70;3.65;;;17.30;82.20;;;;;;10828086;33;20047;-75
2022/10/07 03:27:17;;;;;;;7.53;4.78;;;17.30;82.20;;;;;;10814851;33;20063;-75
2022/10/07 03:33:25;;;;;;;6.37;3.75;;;17.30;82.10;;;;;;10827954;32;20048;-76
2022/10/07 03:39:28;;;;;;;4.18;2.75;;;17.30;82.10;;;;;;10831506;32;20020;-76
2022/10/07 03:45:30;;;;;;;4.22;3.25;;;17.20;82.30;;;;;;10818220;32;20396;-75
2022/10/07 03:51:34;;;;;;;5.57;3.95;;;17.20;82.30;;;;;;10828832;32;20054;-75
2022/10/07 03:57:49;;;;;;;4.03;2.65;;;17.10;82.30;;;;;;10817871;32;20067;-75
2022/10/07 04:03:52;;;;;;;4.97;3.37;;;17.00;82.40;;;;;;10826675;33;20443;-75
2022/10/07 04:09:54;;;;;;;4.85;3.03;;;17.00;82.50;;;;;;10826539;33;20036;-75
2022/10/07 04:15:56;;;;;;;4.30;3.03;;;17.00;82.50;;;;;;10418835;32;12006583;-76
2022/10/07 04:21:58;;;;;;;4.95;2.95;;;17.00;82.40;;;;;;10753988;33;20322;-76
2022/10/07 04:28:04;;;;;;;4.35;2.87;;;17.00;82.50;;;;;;10749010;33;20055;-76
2022/10/07 04:34:07;;;;;;;8.38;4.15;;;17.00;82.50;;;;;;10740352;33;20445;-76
2022/10/07 04:40:42;;;;;;;3.67;2.42;;;17.00;82.40;;;;;;10780681;33;20027;-76
2022/10/07 04:46:44;;;;;;;3.97;2.87;;;16.90;82.50;;;;;;10829645;33;20042;-75
2022/10/07 04:52:48;;;;;;;3.78;3.33;;;16.90;82.50;;;;;;10829645;33;20039;-75
2022/10/07 04:58:50;;;;;;;3.33;2.47;;;16.80;82.60;;;;;;10825384;33;20344;-76
2022/10/07 05:04:52;;;;;;;4.22;3.00;;;16.80;82.70;;;;;;10836101;32;20062;-76
2022/10/07 05:10:56;;;;;;;3.72;3.12;;;16.80;82.70;;;;;;10838550;32;20036;-75
2022/10/07 05:16:59;;;;;;;3.15;2.58;;;16.70;82.70;;;;;;10836114;32;20059;-78
2022/10/07 05:23:01;;;;;;;5.18;3.12;;;16.70;82.70;;;;;;10835956;32;20033;-77
2022/10/07 05:29:04;;;;;;;2.78;2.50;;;16.70;82.80;;;;;;10836047;32;20054;-77
2022/10/07 05:35:09;;;;;;;3.50;2.87;;;16.60;82.80;;;;;;10835836;32;20032;-77
2022/10/07 05:41:14;;;;;;;3.17;2.62;;;16.50;82.90;;;;;;10818416;33;20340;-77
2022/10/07 05:47:19;;;;;;;4.35;3.33;;;16.50;82.90;;;;;;10833533;32;20032;-77
2022/10/07 05:53:27;;;;;;;3.05;2.22;;;16.50;82.80;;;;;;10835331;32;20024;-77
2022/10/07 05:59:55;;;;;;;4.68;3.10;;;16.40;82.80;;;;;;10795818;33;20148;-78
2022/10/07 06:05:58;;;;;;;3.70;2.80;;;16.50;82.80;;;;;;10785022;32;20380;-77
2022/10/07 06:18:36;;;;;;;4.65;2.90;;;16.60;82.60;;;;;;10676533;33;20060;-77
2022/10/07 06:24:38;;;;;;;4.40;2.70;;;16.70;82.60;;;;;;10689251;33;20084;-77
2022/10/07 06:30:41;;;;;;;4.47;2.55;;;16.80;82.60;;;;;;10681481;33;20025;-77
2022/10/07 06:36:43;;;;;;;3.50;2.58;;;16.90;82.60;;;;;;10711964;33;20028;-78
2022/10/07 06:42:46;;;;;;;2.78;2.20;;;17.10;82.50;;;;;;10716082;33;20029;-78
2022/10/07 06:48:54;;;;;;;2.78;2.30;;;17.20;82.50;;;;;;10716308;33;20071;-77
2022/10/07 06:54:57;;;;;;;4.53;2.70;;;17.30;82.50;;;;;;10781601;33;20055;-78
2022/10/07 07:01:18;;;;;;;3.83;2.58;;;17.40;82.50;;;;;;10791745;33;20151;-78
2022/10/07 07:07:22;;;;;;;6.35;3.17;;;17.50;82.50;;;;;;10795748;33;20067;-78
2022/10/07 07:13:39;;;;;;;3.42;2.33;;;17.60;82.40;;;;;;10782920;33;20050;-78
2022/10/07 07:19:41;;;;;;;9.60;3.30;;;17.70;82.30;;;;;;10795304;33;20048;-78
2022/10/07 07:25:44;;;;;;;2.67;2.08;;;17.80;82.20;;;;;;10795076;33;20039;-78
2022/10/07 07:31:49;;;;;;;4.37;2.83;;;17.80;82.00;;;;;;10791134;33;20036;-78
2022/10/07 07:37:53;;;;;;;4.55;2.80;;;17.90;81.90;;;;;;10794589;33;20020;-78
2022/10/07 07:43:58;;;;;;;3.12;2.03;;;18.10;81.80;;;;;;10793658;33;20028;-76
2022/10/07 07:50:03;;;;;;;4.78;2.70;;;18.20;81.50;;;;;;10790140;33;20381;-78
2022/10/07 07:56:07;;;;;;;4.15;2.25;;;18.30;81.30;;;;;;10793980;33;20024;-78
2022/10/07 08:02:11;;;;;;;3.92;2.70;;;18.50;81.00;;;;;;10793904;33;20051;-79
2022/10/07 08:08:31;;;;;;;4.40;2.22;;;18.60;80.70;;;;;;10791853;33;20036;-78
2022/10/07 08:14:34;;;;;;;3.55;2.47;;;18.70;80.50;;;;;;10793425;33;20337;-80
2022/10/07 08:20:36;;;;;;;3.58;2.37;;;18.80;80.30;;;;;;10789448;33;20023;-80
2022/10/07 08:26:39;;;;;;;3.70;2.47;;;19.00;80.40;;;;;;10793361;33;20059;-79
2022/10/07 08:32:43;;;;;;;4.93;3.15;;;19.10;80.50;;;;;;10793026;33;20043;-80
2022/10/07 08:38:46;;;;;;;4.62;2.70;;;19.30;80.40;;;;;;10792849;33;20024;-81
2022/10/07 08:44:49;;;;;;;5.45;3.08;;;19.40;81.20;;;;;;10788882;33;20074;-78
2022/10/07 08:51:03;;;;;;;4.32;3.20;;;19.60;80.80;;;;;;10793159;33;20389;-78
2022/10/07 08:57:15;;;;;;;4.35;2.70;;;19.70;80.30;;;;;;10790080;33;20329;-78
2022/10/07 09:03:43;;;;;;;4.40;2.40;;;19.80;80.30;;;;;;10792834;33;20036;-78
2022/10/07 09:10:20;;;;;;;4.05;1.85;;;20.00;80.30;;;;;;10792787;33;20051;-78
2022/10/07 09:16:35;;;;;;;6.80;1.95;;;20.10;80.50;;;;;;10792199;33;20035;-77
2022/10/07 09:22:38;;;;;;;3.35;2.60;;;20.20;80.30;;;;;;10792775;33;20400;-78
2022/10/07 09:28:41;;;;;;;5.07;2.42;;;20.20;80.10;;;;;;10777341;33;20058;-78
2022/10/07 09:34:45;;;;;;;7.85;1.90;;;20.30;79.40;;;;;;10772348;33;20028;-79
2022/10/07 09:41:16;;;;;;;4.70;1.92;;;20.50;79.10;;;;;;10788117;33;20016;-80
2022/10/07 09:47:24;;;;;;;4.00;2.00;;;20.60;78.30;;;;;;10788410;33;20037;-76
2022/10/07 09:53:32;;;;;;;3.33;2.00;;;20.70;77.70;;;;;;10796816;33;20024;-80
2022/10/07 09:59:40;;;;;;;2.70;1.55;;;20.80;77.20;;;;;;10798294;33;20032;-77
2022/10/07 10:06:08;;;;;;;3.53;2.08;;;21.00;76.80;;;;;;10798107;33;20052;-77
2022/10/07 10:12:17;;;;;;;5.95;2.40;;;21.20;75.80;;;;;;10797674;33;20051;-80
2022/10/07 10:18:31;;;;;;;7.65;2.12;;;21.30;75.50;;;;;;10797612;32;20471;-78
2022/10/07 10:31:15;;;;;;;7.15;2.08;;;21.50;74.40;;;;;;10793295;33;20024;-79
2022/10/07 10:37:21;;;;;;;4.78;2.05;;;21.80;72.80;;;;;;10797079;33;20028;-78
2022/10/07 10:43:23;;;;;;;3.15;2.03;;;21.90;72.20;;;;;;10796984;33;20021;-77
2022/10/07 10:49:33;;;;;;;2.80;1.70;;;22.20;71.40;;;;;;10796378;33;20055;-77
2022/10/07 10:55:42;;;;;;;13.40;2.58;;;22.40;70.70;;;;;;10777034;33;20028;-77
2022/10/07 11:01:54;;;;;;;6.60;2.45;;;22.70;70.40;;;;;;10780264;33;20036;-76
2022/10/07 11:08:31;;;;;;;4.37;1.83;;;23.00;69.60;;;;;;10789876;33;20051;-76
2022/10/07 11:14:52;;;;;;;7.72;1.90;;;23.30;68.70;;;;;;10795033;33;20063;-78
2022/10/07 11:20:56;;;;;;;5.12;1.52;;;23.50;68.10;;;;;;10795123;33;20028;-77
2022/10/07 11:27:09;;;;;;;5.85;1.95;;;23.80;68.00;;;;;;10794344;33;20050;-76
2022/10/07 11:33:19;;;;;;;3.50;2.03;;;23.90;66.80;;;;;;10793764;33;20418;-82
2022/10/07 11:39:22;;;;;;;3.90;1.75;;;24.00;65.80;;;;;;10792421;33;20028;-80
2022/10/07 11:45:28;;;;;;;2.60;1.70;;;24.00;65.50;;;;;;10803575;32;20047;-77
2022/10/07 11:51:37;;;;;;;9.70;2.53;;;24.00;65.50;;;;;;10796746;32;20344;-80
2022/10/07 11:57:42;;;;;;;4.47;2.25;;;24.00;65.10;;;;;;10787487;33;20072;-77
2022/10/07 12:03:46;;;;;;;5.15;1.90;;;24.00;64.70;;;;;;10789914;33;20036;-79
2022/10/07 12:10:27;;;;;;;3.92;1.77;;;23.80;64.40;;;;;;10788012;32;20045;-78
2022/10/07 12:16:52;;;;;;;5.12;1.75;;;23.90;64.80;;;;;;10675315;33;20109;-77
2022/10/07 12:23:22;;;;;;;3.08;1.25;;;23.80;64.70;;;;;;10674644;33;20044;-79
2022/10/07 12:29:30;;;;;;;3.55;1.60;;;23.80;64.30;;;;;;10702226;33;20090;-80
2022/10/07 12:35:33;;;;;;;6.50;2.00;;;23.70;64.40;;;;;;10710581;33;20139;-77
2022/10/07 12:41:35;;;;;;;4.70;1.87;;;23.70;65.20;;;;;;10668671;33;20071;-76
2022/10/07 12:47:39;;;;;;;4.78;1.85;;;23.60;65.00;;;;;;10692537;33;20146;-78
2022/10/07 12:53:42;;;;;;;4.37;2.25;;;23.60;65.10;;;;;;10764911;33;20066;-77
2022/10/07 13:00:19;;;;;;;6.32;2.30;;;23.60;64.90;;;;;;10791931;33;20025;-80
2022/10/07 13:06:31;;;;;;;1.98;1.33;;;23.70;64.30;;;;;;10792376;33;20024;-81
2022/10/07 13:12:44;;;;;;;1.42;1.00;;;23.60;64.40;;;;;;10778843;33;20032;-77
2022/10/07 13:19:14;;;;;;;9.68;1.85;;;23.60;64.50;;;;;;10790232;33;20028;-77
2022/10/07 13:25:20;;;;;;;4.82;1.37;;;23.60;64.20;;;;;;10793463;33;20024;-79
2022/10/07 13:31:29;;;;;;;5.43;1.95;;;23.60;64.10;;;;;;10785474;33;20373;-77
2022/10/07 13:37:36;;;;;;;3.83;1.45;;;23.70;63.70;;;;;;10798165;33;20063;-77
2022/10/07 13:43:38;;;;;;;2.90;1.37;;;23.70;63.40;;;;;;10793975;33;20050;-78
2022/10/07 13:49:42;;;;;;;5.80;1.62;;;23.80;63.30;;;;;;10797228;33;20074;-79
2022/10/07 13:55:48;;;;;;;3.10;2.12;;;23.80;63.40;;;;;;10798269;33;20318;-77
2022/10/07 14:01:53;;;;;;;7.45;1.77;;;23.90;62.90;;;;;;10798499;32;20070;-77
2022/10/07 14:08:12;;;;;;;1.35;1.02;;;24.00;62.50;;;;;;10791312;33;20450;-81
2022/10/07 14:14:36;;;;;;;6.10;1.75;;;24.00;62.20;;;;;;10812939;27;20427;-78
2022/10/07 14:20:51;;;;;;;2.55;1.50;;;24.10;61.90;;;;;;10821092;32;20051;-78
2022/10/07 14:27:35;;;;;;;1.70;1.12;;;24.30;62.00;;;;;;10831830;32;20024;-78
2022/10/07 14:40:21;;;;;;;3.10;1.05;;;24.50;61.20;;;;;;10833619;32;20024;-80
2022/10/07 14:46:24;;;;;;;;;;;24.60;61.00;;;;;;10833557;32;20020;-78
2022/10/07 14:52:36;;;;;;;3.83;1.65;;;24.60;60.60;;;;;;10830401;32;19942;-78
2022/10/07 14:58:38;;;;;;;4.40;1.37;;;24.70;59.80;;;;;;10819482;32;20054;-77
2022/10/07 15:04:43;;;;;;;2.15;1.00;;;24.80;59.60;;;;;;10832891;32;20058;-77
2022/10/07 15:10:45;;;;;;;6.68;1.37;;;24.80;59.60;;;;;;10830332;32;20050;-76
2022/10/07 15:16:49;;;;;;;2.78;1.30;;;24.80;59.70;;;;;;10832195;32;20058;-77
2022/10/07 15:22:51;;;;;;;7.20;2.55;;;24.80;59.90;;;;;;10831979;32;20228;-78
2022/10/07 15:28:55;;;;;;;4.15;2.37;;;25.40;59.30;;;;;;10814597;33;20050;-78
2022/10/07 15:34:57;;;;;;;3.17;1.70;;;26.70;57.40;;;;;;10816670;32;20024;-79
2022/10/07 15:41:00;;;;;;;3.47;2.00;;;27.90;55.90;;;;;;10827356;33;20032;-78
2022/10/07 15:47:02;;;;;;;3.65;2.15;;;28.80;54.90;;;;;;10831299;32;20337;-78
2022/10/07 15:53:04;;;;;;;1.90;1.27;;;29.40;54.70;;;;;;10826830;33;20024;-78
2022/10/07 15:59:22;;;;;;;2.90;1.75;;;29.60;54.80;;;;;;10817428;32;20016;-79
2022/10/07 16:05:24;;;;;;;2.23;1.00;;;29.70;55.20;;;;;;10813249;33;20036;-78
2022/10/07 16:11:28;;;;;;;2.47;1.25;;;29.00;56.40;;;;;;10826139;33;20302;-78
2022/10/07 16:17:30;;;;;;;2.95;1.75;;;27.30;59.60;;;;;;10830397;32;20063;-78
2022/10/07 16:23:34;;;;;;;5.82;1.83;;;26.00;61.90;;;;;;10817021;32;20100;-78
2022/10/07 16:35:57;;;;;;;2.33;1.83;;;24.50;64.30;;;;;;10830520;32;20021;-79
2022/10/07 16:41:59;;;;;;;2.47;1.83;;;24.00;64.80;;;;;;10830021;32;20012;-78
2022/10/07 16:48:01;;;;;;;5.85;2.30;;;23.70;65.30;;;;;;10829787;33;20016;-78
2022/10/07 16:54:16;;;;;;;6.40;2.42;;;23.40;65.70;;;;;;10812408;33;20024;-78
2022/10/07 17:00:46;;;;;;;2.83;1.60;;;23.20;66.00;;;;;;10835842;32;20192;-78
2022/10/07 17:06:48;;;;;;;4.18;2.10;;;22.90;66.40;;;;;;10836858;32;20020;-78
2022/10/07 17:12:49;;;;;;;4.87;2.62;;;22.70;66.80;;;;;;10832354;32;20054;-78
2022/10/07 17:18:52;;;;;;;4.70;2.25;;;22.60;67.00;;;;;;10836373;32;20046;-79
2022/10/07 17:24:55;;;;;;;7.20;2.78;;;22.40;67.20;;;;;;10836348;32;20042;-78
2022/10/07 17:31:05;;;;;;;3.33;1.65;;;22.30;67.50;;;;;;10835679;32;20051;-79
2022/10/07 17:37:09;;;;;;;4.00;2.47;;;22.20;67.80;;;;;;10835654;32;20036;-78
2022/10/07 17:43:11;;;;;;;3.90;2.80;;;22.10;67.90;;;;;;10835473;32;20023;-78
2022/10/07 17:49:19;;;;;;;8.95;3.65;;;22.00;68.10;;;;;;10835343;32;20016;-78
2022/10/07 17:55:27;;;;;;;7.85;2.78;;;21.90;68.40;;;;;;10830851;33;20016;-78
2022/10/07 18:01:35;;;;;;;4.10;2.33;;;21.80;68.50;;;;;;10834630;32;20028;-78
2022/10/07 18:07:58;;;;;;;5.70;3.43;;;21.70;68.70;;;;;;10829300;32;20038;-78
2022/10/07 18:21:03;;;;;;;11.82;4.18;;;21.60;69.20;;;;;;10832859;32;20307;-78
2022/10/07 18:27:05;;;;;;;8.05;4.60;;;21.50;69.40;;;;;;10820583;32;20055;-78
2022/10/07 18:33:08;;;;;;;6.72;4.22;;;21.40;69.50;;;;;;10833719;32;20012;-78
2022/10/07 18:39:32;;;;;;;8.60;5.72;;;21.30;69.60;;;;;;10829355;33;20251;-78
2022/10/07 18:45:34;;;;;;;14.40;5.00;;;21.20;69.90;;;;;;10833276;32;20051;-78
2022/10/07 18:51:36;;;;;;;8.38;4.75;;;21.20;70.20;;;;;;10832857;32;20046;-78
2022/10/07 18:57:39;;;;;;;5.60;3.50;;;21.10;70.30;;;;;;10829019;32;20020;-78
2022/10/07 19:04:07;;;;;;;8.48;5.00;;;21.00;70.60;;;;;;10832243;32;20078;-78
2022/10/07 19:10:13;;;;;;;7.53;4.15;;;20.90;70.80;;;;;;10819177;32;20036;-78
2022/10/07 19:17:17;;;;;;;6.18;4.55;;;20.90;71.10;;;;;;10819447;32;20051;-78
2022/10/07 19:23:19;;;;;;;5.55;4.55;;;20.80;71.50;;;;;;10715299;33;20047;-78
2022/10/07 19:29:22;;;;;;;6.20;3.92;;;20.80;72.10;;;;;;10717779;33;20303;-78
2022/10/07 19:36:01;;;;;;;8.20;4.53;;;20.80;72.10;;;;;;10717459;33;20021;-78
2022/10/07 19:42:03;;;;;;;5.57;4.18;;;20.70;72.30;;;;;;10717363;33;20428;-78
2022/10/07 19:48:06;;;;;;;15.98;5.82;;;20.50;72.60;;;;;;10716293;33;20350;-78
2022/10/07 19:54:11;;;;;;;7.45;5.07;;;20.50;72.80;;;;;;10718149;33;20399;-78
2022/10/07 20:00:13;;;;;;;6.90;5.72;;;20.30;73.00;;;;;;10808836;33;20389;-78
2022/10/07 20:06:16;;;;;;;5.05;4.15;;;20.30;73.20;;;;;;10830524;32;20046;-78
2022/10/07 20:12:18;;;;;;;9.00;5.28;;;20.30;73.20;;;;;;10830328;32;20016;-78
2022/10/07 20:18:20;;;;;;;7.57;5.87;;;20.20;73.40;;;;;;10830267;32;20024;-77
2022/10/07 20:24:22;;;;;;;9.85;5.57;;;20.20;73.60;;;;;;10829921;32;20024;-78
2022/10/07 20:30:24;;;;;;;8.30;6.37;;;20.20;73.70;;;;;;10825518;32;20023;-78
2022/10/07 20:36:29;;;;;;;8.90;5.32;;;20.10;73.70;;;;;;10830014;32;20020;-77
2022/10/07 20:42:32;;;;;;;7.22;4.85;;;20.10;74.00;;;;;;10816823;32;20060;-78
2022/10/07 20:48:34;;;;;;;11.30;4.85;;;20.00;74.10;;;;;;10829767;32;20024;-78
2022/10/07 20:54:47;;;;;;;10.32;6.82;;;20.00;74.20;;;;;;10825543;33;20050;-78
2022/10/07 21:00:50;;;;;;;11.60;6.85;;;20.00;74.40;;;;;;10829604;33;20021;-78
2022/10/07 21:06:56;;;;;;;8.13;6.07;;;20.00;74.60;;;;;;10829579;33;20050;-78
2022/10/07 21:12:59;;;;;;;10.88;6.18;;;19.90;74.70;;;;;;10816420;32;20411;-78
2022/10/07 21:19:01;;;;;;;9.07;6.95;;;19.90;74.90;;;;;;10829466;33;20367;-78
2022/10/07 21:25:25;;;;;;;11.10;6.22;;;19.80;75.00;;;;;;10812035;33;20016;-78
2022/10/07 21:31:30;;;;;;;8.77;6.22;;;19.80;75.10;;;;;;10811855;33;20024;-77
2022/10/07 21:37:32;;;;;;;9.80;7.07;;;19.80;75.20;;;;;;10827583;33;20019;-77
2022/10/07 21:43:34;;;;;;;7.85;6.18;;;19.70;75.30;;;;;;10831389;32;20015;-77
2022/10/07 21:49:36;;;;;;;8.13;6.55;;;19.70;75.50;;;;;;10834675;32;20047;-77
2022/10/07 21:55:38;;;;;;;8.05;6.10;;;19.70;75.60;;;;;;10835389;32;20032;-77
2022/10/07 22:01:41;;;;;;;11.12;5.95;;;19.50;75.80;;;;;;10817990;33;20020;-79
2022/10/07 22:14:05;;;;;;;9.30;6.70;;;19.50;76.70;;;;;;10838854;27;20329;-77
2022/10/07 22:20:08;;;;;;;15.23;7.25;;;19.40;76.70;;;;;;10834496;32;20114;-77
2022/10/07 22:26:11;;;;;;;16.35;7.62;;;19.40;76.70;;;;;;10834343;32;20036;-80
2022/10/07 22:32:13;;;;;;;8.32;6.35;;;19.30;76.70;;;;;;10834366;32;20438;-76
2022/10/07 22:38:16;;;;;;;12.05;6.25;;;19.30;76.70;;;;;;10829750;33;20302;-77
2022/10/07 22:44:18;;;;;;;13.15;6.70;;;19.20;76.80;;;;;;10816525;33;20024;-77
2022/10/07 22:50:20;;;;;;;8.25;6.25;;;19.10;76.90;;;;;;10833645;32;20024;-78
2022/10/07 22:56:24;;;;;;;11.18;6.97;;;19.10;77.00;;;;;;10832782;32;20053;-77
2022/10/07 23:02:26;;;;;;;9.45;6.62;;;19.10;77.00;;;;;;10832985;32;20047;-77
2022/10/07 23:08:31;;;;;;;9.48;7.72;;;19.00;77.10;;;;;;10829482;32;20023;-77
2022/10/07 23:14:34;;;;;;;10.27;6.47;;;19.00;77.20;;;;;;10828673;33;20431;-77
2022/10/07 23:20:36;;;;;;;8.63;6.65;;;19.00;77.30;;;;;;10832456;32;20050;-77
2022/10/07 23:26:38;;;;;;;13.23;6.70;;;18.90;77.40;;;;;;10832462;32;20082;-77
2022/10/07 23:32:44;;;;;;;18.10;7.18;;;18.80;77.50;;;;;;10832185;32;20023;-77
2022/10/07 23:38:48;;;;;;;8.88;6.07;;;18.70;77.70;;;;;;10818858;32;20058;-77
2022/10/07 23:44:50;;;;;;;7.40;5.68;;;18.70;77.80;;;;;;10831778;32;20389;-77
2022/10/07 23:50:56;;;;;;;7.80;6.22;;;18.60;77.90;;;;;;10831406;32;20318;-78
2022/10/07 23:56:58;;;;;;;9.82;7.07;;;18.60;78.20;;;;;;10831131;32;20047;-77
